LOWI Airport Information

Runway Information
Runway 08 Length 6562 ft width 148 ft
Elevation 1906 ft Threshold 339 ft Heading 81
Runway 26 Length 6562 ft Width 148 ft
Elevation 1893 ft Threshold 198 ft Heading 261
Airport Frequencies
Type APP Name APP Frequency 119.275 MHZ
Type ATIS Name ATIS Frequency 126.025 MHZ
Type GND Crew Name Frequency 121.8 MHZ
Type GND Crew Name Frequency 121.9 MHZ
Type TWR Name TWR Frequency 120.1 MHZ
Airport Navaids
Type NDB Name Innsbruck Frequency 420 KHZ
Type NDB Name Kuhtai Frequency 413 KHZ
Airport Weather Information & NOTAM
ADDS - METARS form results

(1558 UTC 26 November 2020)
Data provider http://aviationweather.gov/metar/data/
 
METAR text: LOWI 261550Z 14002KT CAVOK 04/M02 Q1022 NOSIG
Conditions at: LOWI (INNSBRUCK AIRPOR, AT) observed 1550 UTC 26 November 2020
Temperature: 4.0°C (39°F)
Dewpoint: -2.0°C (28°F) [RH = 65%]
Pressure (altimeter): 30.18 inches Hg (1022.0 mb)
Winds: from the SE (140 degrees) at 2 MPH (2 knots; 1.0 m/s)
Visibility: 6 or more miles (10+ km)
Ceiling: ceiling and visibility are OK
Clouds: unknown
Weather: no significant weather observed at this time

METAR text: LOWI 261520Z 13004KT CAVOK 05/M02 Q1021 NOSIG
Conditions at: LOWI (INNSBRUCK AIRPOR, AT) observed 1520 UTC 26 November 2020
Temperature: 5.0°C (41°F)
Dewpoint: -2.0°C (28°F) [RH = 60%]
Pressure (altimeter): 30.15 inches Hg (1021.0 mb)
Winds: from the SE (130 degrees) at 5 MPH (4 knots; 2.1 m/s)
Visibility: 6 or more miles (10+ km)
Ceiling: ceiling and visibility are OK
Clouds: unknown
Weather: no significant weather observed at this time

Forecast for: LOWI (INNSBRUCK AIRPOR, AT)
Text: TAF LOWI 261115Z 2612/2712 VRB02KT CAVOK TX08/2613Z TNM04/2705Z
Forecast period: 1200 UTC 26 November 2020 to 1200 UTC 27 November 2020
Forecast type: FROM: standard forecast or significant change
Winds: variable direction winds at 2 MPH (2 knots; 1.0 m/s)
Visibility: 6 or more miles (10+ km)
Ceiling: unknown
Clouds: missing
Weather: no significant weather forecast for this period
Text: TEMPO 2703/2707 9999 MIFG NSC
Forecast period: 0300 to 0700 UTC 27 November 2020
Forecast type: TEMPORARY: The following changes expected for less than half the time period
Visibility: 6 or more miles (10+ km)
Ceiling: unknown
Clouds: missing
Weather: MIFG  (shallow fog)